sensor_id;sensor_type;location;lat;lon;timestamp;P1;durP1;ratioP1;P2;durP2;ratioP2
19727;SDS011;10015;52.530;13.390;2023-12-28T00:02:22;7.03;;;3.60;;
19727;SDS011;10015;52.530;13.390;2023-12-28T00:04:48;7.17;;;3.20;;
19727;SDS011;10015;52.530;13.390;2023-12-28T00:07:16;7.53;;;3.20;;
19727;SDS011;10015;52.530;13.390;2023-12-28T00:09:42;8.30;;;3.70;;
19727;SDS011;10015;52.530;13.390;2023-12-28T00:12:08;6.63;;;3.37;;
19727;SDS011;10015;52.530;13.390;2023-12-28T00:14:34;8.07;;;3.57;;
19727;SDS011;10015;52.530;13.390;2023-12-28T00:17:00;7.23;;;3.20;;
19727;SDS011;10015;52.530;13.390;2023-12-28T00:19:27;7.10;;;3.50;;
19727;SDS011;10015;52.530;13.390;2023-12-28T00:21:53;7.27;;;3.50;;
19727;SDS011;10015;52.530;13.390;2023-12-28T00:24:19;6.33;;;3.00;;
19727;SDS011;10015;52.530;13.390;2023-12-28T00:26:47;8.63;;;3.53;;
19727;SDS011;10015;52.530;13.390;2023-12-28T00:29:16;9.27;;;3.43;;
19727;SDS011;10015;52.530;13.390;2023-12-28T00:31:42;5.83;;;3.13;;
19727;SDS011;10015;52.530;13.390;2023-12-28T00:34:08;6.93;;;3.27;;
19727;SDS011;10015;52.530;13.390;2023-12-28T00:36:35;6.23;;;3.27;;
19727;SDS011;10015;52.530;13.390;2023-12-28T00:39:01;8.57;;;3.33;;
19727;SDS011;10015;52.530;13.390;2023-12-28T00:41:27;8.57;;;3.10;;
19727;SDS011;10015;52.530;13.390;2023-12-28T00:43:54;8.77;;;3.60;;
19727;SDS011;10015;52.530;13.390;2023-12-28T00:46:21;6.90;;;2.97;;
19727;SDS011;10015;52.530;13.390;2023-12-28T00:49:03;6.67;;;3.10;;
19727;SDS011;10015;52.530;13.390;2023-12-28T00:51:29;7.87;;;3.33;;
19727;SDS011;10015;52.530;13.390;2023-12-28T00:53:56;6.43;;;2.83;;
19727;SDS011;10015;52.530;13.390;2023-12-28T00:56:23;7.87;;;3.27;;
19727;SDS011;10015;52.530;13.390;2023-12-28T00:58:50;7.37;;;3.30;;
19727;SDS011;10015;52.530;13.390;2023-12-28T01:01:18;6.33;;;3.10;;
19727;SDS011;10015;52.530;13.390;2023-12-28T01:03:44;6.33;;;3.30;;
19727;SDS011;10015;52.530;13.390;2023-12-28T01:06:10;6.03;;;3.07;;
19727;SDS011;10015;52.530;13.390;2023-12-28T01:08:39;7.63;;;3.10;;
19727;SDS011;10015;52.530;13.390;2023-12-28T01:11:07;6.57;;;3.10;;
19727;SDS011;10015;52.530;13.390;2023-12-28T01:13:34;9.90;;;3.23;;
19727;SDS011;10015;52.530;13.390;2023-12-28T01:16:06;5.30;;;3.03;;
19727;SDS011;10015;52.530;13.390;2023-12-28T01:18:33;5.00;;;2.60;;
19727;SDS011;10015;52.530;13.390;2023-12-28T01:21:00;6.50;;;3.00;;
19727;SDS011;10015;52.530;13.390;2023-12-28T01:23:27;6.60;;;3.37;;
19727;SDS011;10015;52.530;13.390;2023-12-28T01:25:54;6.03;;;2.60;;
19727;SDS011;10015;52.530;13.390;2023-12-28T01:28:23;5.80;;;2.70;;
19727;SDS011;10015;52.530;13.390;2023-12-28T01:30:51;4.17;;;2.60;;
19727;SDS011;10015;52.530;13.390;2023-12-28T01:33:19;6.60;;;2.80;;
19727;SDS011;10015;52.530;13.390;2023-12-28T01:35:47;6.57;;;2.70;;
19727;SDS011;10015;52.530;13.390;2023-12-28T01:38:14;6.63;;;2.87;;
19727;SDS011;10015;52.530;13.390;2023-12-28T01:40:44;6.20;;;2.40;;
19727;SDS011;10015;52.530;13.390;2023-12-28T01:43:11;6.73;;;2.57;;
19727;SDS011;10015;52.530;13.390;2023-12-28T01:45:37;4.97;;;2.47;;
19727;SDS011;10015;52.530;13.390;2023-12-28T01:48:03;5.30;;;2.40;;
19727;SDS011;10015;52.530;13.390;2023-12-28T01:50:29;5.37;;;2.33;;
19727;SDS011;10015;52.530;13.390;2023-12-28T01:52:57;5.37;;;2.30;;
19727;SDS011;10015;52.530;13.390;2023-12-28T01:55:26;5.63;;;2.43;;
19727;SDS011;10015;52.530;13.390;2023-12-28T01:57:54;3.77;;;2.10;;
19727;SDS011;10015;52.530;13.390;2023-12-28T02:00:22;5.03;;;2.10;;
19727;SDS011;10015;52.530;13.390;2023-12-28T02:02:49;6.97;;;2.37;;
19727;SDS011;10015;52.530;13.390;2023-12-28T02:05:16;5.57;;;2.10;;
19727;SDS011;10015;52.530;13.390;2023-12-28T02:07:42;4.73;;;2.23;;
19727;SDS011;10015;52.530;13.390;2023-12-28T02:10:08;5.30;;;2.00;;
19727;SDS011;10015;52.530;13.390;2023-12-28T02:12:34;4.90;;;1.93;;
19727;SDS011;10015;52.530;13.390;2023-12-28T02:15:00;5.73;;;1.90;;
19727;SDS011;10015;52.530;13.390;2023-12-28T02:17:39;4.03;;;1.70;;
19727;SDS011;10015;52.530;13.390;2023-12-28T02:20:06;5.50;;;1.93;;
19727;SDS011;10015;52.530;13.390;2023-12-28T02:22:33;4.77;;;1.93;;
19727;SDS011;10015;52.530;13.390;2023-12-28T02:25:10;3.57;;;2.10;;
19727;SDS011;10015;52.530;13.390;2023-12-28T02:27:43;2.77;;;1.70;;
19727;SDS011;10015;52.530;13.390;2023-12-28T02:30:14;2.67;;;1.70;;
19727;SDS011;10015;52.530;13.390;2023-12-28T02:35:20;2.70;;;1.70;;
19727;SDS011;10015;52.530;13.390;2023-12-28T02:37:51;3.07;;;1.70;;
19727;SDS011;10015;52.530;13.390;2023-12-28T02:40:21;2.57;;;1.73;;
19727;SDS011;10015;52.530;13.390;2023-12-28T02:42:48;2.83;;;1.70;;
19727;SDS011;10015;52.530;13.390;2023-12-28T02:45:17;3.93;;;1.80;;
19727;SDS011;10015;52.530;13.390;2023-12-28T02:47:44;3.67;;;1.80;;
19727;SDS011;10015;52.530;13.390;2023-12-28T02:50:10;2.10;;;1.43;;
19727;SDS011;10015;52.530;13.390;2023-12-28T02:52:35;3.10;;;1.63;;
19727;SDS011;10015;52.530;13.390;2023-12-28T02:55:01;3.13;;;1.60;;
19727;SDS011;10015;52.530;13.390;2023-12-28T02:57:28;2.77;;;1.60;;
19727;SDS011;10015;52.530;13.390;2023-12-28T02:59:54;2.97;;;1.50;;
19727;SDS011;10015;52.530;13.390;2023-12-28T03:02:22;1.70;;;1.30;;
19727;SDS011;10015;52.530;13.390;2023-12-28T03:04:48;2.93;;;1.50;;
19727;SDS011;10015;52.530;13.390;2023-12-28T03:07:14;4.17;;;1.50;;
19727;SDS011;10015;52.530;13.390;2023-12-28T03:09:40;2.07;;;1.30;;
19727;SDS011;10015;52.530;13.390;2023-12-28T03:12:06;4.53;;;1.50;;
19727;SDS011;10015;52.530;13.390;2023-12-28T03:14:32;2.30;;;1.30;;
19727;SDS011;10015;52.530;13.390;2023-12-28T03:16:58;2.87;;;1.40;;
19727;SDS011;10015;52.530;13.390;2023-12-28T03:19:23;1.70;;;1.30;;
19727;SDS011;10015;52.530;13.390;2023-12-28T03:21:49;2.77;;;1.80;;
19727;SDS011;10015;52.530;13.390;2023-12-28T03:24:15;2.10;;;1.43;;
19727;SDS011;10015;52.530;13.390;2023-12-28T03:26:44;2.03;;;1.17;;
19727;SDS011;10015;52.530;13.390;2023-12-28T03:29:09;1.57;;;1.10;;
19727;SDS011;10015;52.530;13.390;2023-12-28T03:31:39;3.27;;;1.50;;
19727;SDS011;10015;52.530;13.390;2023-12-28T03:34:06;2.63;;;1.50;;
19727;SDS011;10015;52.530;13.390;2023-12-28T03:36:32;2.27;;;1.20;;
19727;SDS011;10015;52.530;13.390;2023-12-28T03:38:58;5.40;;;1.40;;
19727;SDS011;10015;52.530;13.390;2023-12-28T03:41:24;2.57;;;1.23;;
19727;SDS011;10015;52.530;13.390;2023-12-28T03:43:50;3.83;;;1.40;;
19727;SDS011;10015;52.530;13.390;2023-12-28T03:46:17;1.90;;;1.20;;
19727;SDS011;10015;52.530;13.390;2023-12-28T03:48:43;2.57;;;1.80;;
19727;SDS011;10015;52.530;13.390;2023-12-28T03:51:13;1.60;;;1.20;;
19727;SDS011;10015;52.530;13.390;2023-12-28T03:53:42;5.73;;;1.40;;
19727;SDS011;10015;52.530;13.390;2023-12-28T03:56:17;2.23;;;1.30;;
19727;SDS011;10015;52.530;13.390;2023-12-28T03:58:52;1.33;;;1.10;;
19727;SDS011;10015;52.530;13.390;2023-12-28T04:01:19;2.40;;;1.00;;
19727;SDS011;10015;52.530;13.390;2023-12-28T04:03:48;3.50;;;1.17;;
19727;SDS011;10015;52.530;13.390;2023-12-28T04:06:14;2.17;;;1.20;;
19727;SDS011;10015;52.530;13.390;2023-12-28T04:08:42;1.30;;;1.10;;
19727;SDS011;10015;52.530;13.390;2023-12-28T04:11:08;2.23;;;1.10;;
19727;SDS011;10015;52.530;13.390;2023-12-28T04:13:34;3.17;;;1.20;;
19727;SDS011;10015;52.530;13.390;2023-12-28T04:16:01;1.83;;;1.20;;
19727;SDS011;10015;52.530;13.390;2023-12-28T04:18:27;2.70;;;1.30;;
19727;SDS011;10015;52.530;13.390;2023-12-28T04:20:53;1.97;;;1.27;;
19727;SDS011;10015;52.530;13.390;2023-12-28T04:23:19;3.83;;;1.70;;
19727;SDS011;10015;52.530;13.390;2023-12-28T04:25:45;1.87;;;1.40;;
19727;SDS011;10015;52.530;13.390;2023-12-28T04:28:11;1.30;;;1.00;;
19727;SDS011;10015;52.530;13.390;2023-12-28T04:30:37;1.47;;;0.93;;
19727;SDS011;10015;52.530;13.390;2023-12-28T04:33:03;4.60;;;1.43;;
19727;SDS011;10015;52.530;13.390;2023-12-28T04:35:29;1.43;;;1.10;;
19727;SDS011;10015;52.530;13.390;2023-12-28T04:37:56;1.53;;;1.20;;
19727;SDS011;10015;52.530;13.390;2023-12-28T04:40:22;1.97;;;1.20;;
19727;SDS011;10015;52.530;13.390;2023-12-28T04:42:48;2.63;;;1.20;;
19727;SDS011;10015;52.530;13.390;2023-12-28T04:45:17;1.87;;;1.10;;
19727;SDS011;10015;52.530;13.390;2023-12-28T04:47:43;2.17;;;1.20;;
19727;SDS011;10015;52.530;13.390;2023-12-28T04:50:09;1.27;;;1.13;;
19727;SDS011;10015;52.530;13.390;2023-12-28T04:52:35;2.70;;;1.27;;
19727;SDS011;10015;52.530;13.390;2023-12-28T04:55:01;1.47;;;1.03;;
19727;SDS011;10015;52.530;13.390;2023-12-28T04:57:26;2.83;;;1.10;;
19727;SDS011;10015;52.530;13.390;2023-12-28T04:59:54;2.93;;;1.20;;
19727;SDS011;10015;52.530;13.390;2023-12-28T05:02:21;2.23;;;1.20;;
19727;SDS011;10015;52.530;13.390;2023-12-28T05:04:47;2.47;;;1.30;;
19727;SDS011;10015;52.530;13.390;2023-12-28T05:07:13;2.37;;;1.20;;
19727;SDS011;10015;52.530;13.390;2023-12-28T05:09:39;4.20;;;1.20;;
19727;SDS011;10015;52.530;13.390;2023-12-28T05:12:05;1.60;;;1.33;;
19727;SDS011;10015;52.530;13.390;2023-12-28T05:14:31;2.07;;;0.90;;
19727;SDS011;10015;52.530;13.390;2023-12-28T05:16:58;1.77;;;1.00;;
19727;SDS011;10015;52.530;13.390;2023-12-28T05:19:25;1.93;;;1.30;;
19727;SDS011;10015;52.530;13.390;2023-12-28T05:21:51;2.90;;;1.20;;
19727;SDS011;10015;52.530;13.390;2023-12-28T05:24:17;1.13;;;1.00;;
19727;SDS011;10015;52.530;13.390;2023-12-28T05:26:43;1.83;;;1.10;;
19727;SDS011;10015;52.530;13.390;2023-12-28T05:29:08;2.57;;;1.27;;
19727;SDS011;10015;52.530;13.390;2023-12-28T05:31:34;2.40;;;1.13;;
19727;SDS011;10015;52.530;13.390;2023-12-28T05:34:01;2.13;;;1.00;;
19727;SDS011;10015;52.530;13.390;2023-12-28T05:36:27;1.90;;;1.13;;
19727;SDS011;10015;52.530;13.390;2023-12-28T05:38:54;1.93;;;1.20;;
19727;SDS011;10015;52.530;13.390;2023-12-28T05:41:19;2.27;;;1.30;;
19727;SDS011;10015;52.530;13.390;2023-12-28T05:43:46;1.70;;;1.07;;
19727;SDS011;10015;52.530;13.390;2023-12-28T05:46:11;1.57;;;1.10;;
19727;SDS011;10015;52.530;13.390;2023-12-28T05:48:37;2.33;;;1.23;;
19727;SDS011;10015;52.530;13.390;2023-12-28T05:51:03;2.73;;;1.17;;
19727;SDS011;10015;52.530;13.390;2023-12-28T05:53:29;2.70;;;1.00;;
19727;SDS011;10015;52.530;13.390;2023-12-28T05:55:55;2.43;;;1.00;;
19727;SDS011;10015;52.530;13.390;2023-12-28T05:58:21;1.63;;;1.00;;
19727;SDS011;10015;52.530;13.390;2023-12-28T06:00:48;1.50;;;1.17;;
19727;SDS011;10015;52.530;13.390;2023-12-28T06:03:14;3.03;;;1.20;;
19727;SDS011;10015;52.530;13.390;2023-12-28T06:05:40;1.67;;;1.13;;
19727;SDS011;10015;52.530;13.390;2023-12-28T06:08:06;2.60;;;1.40;;
19727;SDS011;10015;52.530;13.390;2023-12-28T06:10:32;2.50;;;1.33;;
19727;SDS011;10015;52.530;13.390;2023-12-28T06:12:58;1.90;;;1.00;;
19727;SDS011;10015;52.530;13.390;2023-12-28T06:15:24;3.50;;;1.20;;
19727;SDS011;10015;52.530;13.390;2023-12-28T06:17:50;2.27;;;1.20;;
19727;SDS011;10015;52.530;13.390;2023-12-28T06:20:16;1.63;;;1.20;;
19727;SDS011;10015;52.530;13.390;2023-12-28T06:22:42;2.70;;;1.30;;
19727;SDS011;10015;52.530;13.390;2023-12-28T06:25:10;1.47;;;1.10;;
19727;SDS011;10015;52.530;13.390;2023-12-28T06:27:37;2.23;;;1.20;;
19727;SDS011;10015;52.530;13.390;2023-12-28T06:30:04;3.57;;;1.50;;
19727;SDS011;10015;52.530;13.390;2023-12-28T06:32:31;2.57;;;1.33;;
19727;SDS011;10015;52.530;13.390;2023-12-28T06:34:56;3.27;;;1.50;;
19727;SDS011;10015;52.530;13.390;2023-12-28T06:37:22;2.47;;;1.40;;
19727;SDS011;10015;52.530;13.390;2023-12-28T06:39:48;4.03;;;1.47;;
19727;SDS011;10015;52.530;13.390;2023-12-28T06:42:14;3.00;;;1.40;;
19727;SDS011;10015;52.530;13.390;2023-12-28T06:44:40;3.57;;;1.63;;
19727;SDS011;10015;52.530;13.390;2023-12-28T06:47:06;4.03;;;1.93;;
19727;SDS011;10015;52.530;13.390;2023-12-28T06:49:32;2.83;;;1.57;;
19727;SDS011;10015;52.530;13.390;2023-12-28T06:51:57;2.80;;;1.47;;
19727;SDS011;10015;52.530;13.390;2023-12-28T06:54:23;2.90;;;1.73;;
19727;SDS011;10015;52.530;13.390;2023-12-28T06:56:49;2.87;;;1.60;;
19727;SDS011;10015;52.530;13.390;2023-12-28T06:59:16;1.70;;;1.23;;
19727;SDS011;10015;52.530;13.390;2023-12-28T07:01:42;3.73;;;1.40;;
19727;SDS011;10015;52.530;13.390;2023-12-28T07:04:09;3.33;;;1.60;;
19727;SDS011;10015;52.530;13.390;2023-12-28T07:06:35;3.30;;;1.40;;
19727;SDS011;10015;52.530;13.390;2023-12-28T07:09:01;2.57;;;1.20;;
19727;SDS011;10015;52.530;13.390;2023-12-28T07:11:27;1.87;;;1.30;;
19727;SDS011;10015;52.530;13.390;2023-12-28T07:13:53;2.87;;;1.50;;
19727;SDS011;10015;52.530;13.390;2023-12-28T07:16:19;2.63;;;1.37;;
19727;SDS011;10015;52.530;13.390;2023-12-28T07:18:45;2.67;;;1.40;;
19727;SDS011;10015;52.530;13.390;2023-12-28T07:21:11;2.03;;;1.23;;
19727;SDS011;10015;52.530;13.390;2023-12-28T07:23:37;2.50;;;1.50;;
19727;SDS011;10015;52.530;13.390;2023-12-28T07:26:03;2.23;;;1.33;;
19727;SDS011;10015;52.530;13.390;2023-12-28T07:28:29;2.00;;;1.20;;
19727;SDS011;10015;52.530;13.390;2023-12-28T07:30:56;4.63;;;1.57;;
19727;SDS011;10015;52.530;13.390;2023-12-28T07:33:22;2.47;;;1.37;;
19727;SDS011;10015;52.530;13.390;2023-12-28T07:35:52;3.03;;;1.47;;
19727;SDS011;10015;52.530;13.390;2023-12-28T07:38:18;3.27;;;1.37;;
19727;SDS011;10015;52.530;13.390;2023-12-28T07:40:44;2.40;;;1.40;;
19727;SDS011;10015;52.530;13.390;2023-12-28T07:43:10;3.90;;;1.67;;
19727;SDS011;10015;52.530;13.390;2023-12-28T07:45:35;1.67;;;1.40;;
19727;SDS011;10015;52.530;13.390;2023-12-28T07:48:04;3.80;;;1.50;;
19727;SDS011;10015;52.530;13.390;2023-12-28T07:50:30;4.20;;;1.43;;
19727;SDS011;10015;52.530;13.390;2023-12-28T07:52:56;3.73;;;1.40;;
19727;SDS011;10015;52.530;13.390;2023-12-28T07:55:21;3.53;;;1.60;;
19727;SDS011;10015;52.530;13.390;2023-12-28T07:57:47;2.97;;;1.60;;
19727;SDS011;10015;52.530;13.390;2023-12-28T08:00:13;2.57;;;1.83;;
19727;SDS011;10015;52.530;13.390;2023-12-28T08:02:40;2.93;;;1.43;;
19727;SDS011;10015;52.530;13.390;2023-12-28T08:05:09;2.03;;;1.17;;
19727;SDS011;10015;52.530;13.390;2023-12-28T08:07:35;2.63;;;1.30;;
19727;SDS011;10015;52.530;13.390;2023-12-28T08:10:00;2.30;;;1.73;;
19727;SDS011;10015;52.530;13.390;2023-12-28T08:12:27;2.70;;;1.57;;
19727;SDS011;10015;52.530;13.390;2023-12-28T08:14:53;4.70;;;1.70;;
19727;SDS011;10015;52.530;13.390;2023-12-28T08:17:20;4.53;;;1.67;;
19727;SDS011;10015;52.530;13.390;2023-12-28T08:19:45;2.27;;;1.40;;
19727;SDS011;10015;52.530;13.390;2023-12-28T08:22:11;4.60;;;1.93;;
19727;SDS011;10015;52.530;13.390;2023-12-28T08:24:37;3.37;;;1.93;;
19727;SDS011;10015;52.530;13.390;2023-12-28T08:27:04;2.67;;;1.40;;
19727;SDS011;10015;52.530;13.390;2023-12-28T08:29:30;3.57;;;1.50;;
19727;SDS011;10015;52.530;13.390;2023-12-28T08:31:56;2.97;;;1.80;;
19727;SDS011;10015;52.530;13.390;2023-12-28T08:34:22;1.83;;;1.50;;
19727;SDS011;10015;52.530;13.390;2023-12-28T08:36:50;2.93;;;1.53;;
19727;SDS011;10015;52.530;13.390;2023-12-28T08:39:16;1.93;;;1.33;;
19727;SDS011;10015;52.530;13.390;2023-12-28T08:41:41;2.97;;;1.17;;
19727;SDS011;10015;52.530;13.390;2023-12-28T08:44:07;2.10;;;1.50;;
19727;SDS011;10015;52.530;13.390;2023-12-28T08:46:33;2.67;;;1.57;;
19727;SDS011;10015;52.530;13.390;2023-12-28T08:48:59;4.77;;;1.73;;
19727;SDS011;10015;52.530;13.390;2023-12-28T08:51:25;3.03;;;1.60;;
19727;SDS011;10015;52.530;13.390;2023-12-28T08:53:51;1.63;;;1.50;;
19727;SDS011;10015;52.530;13.390;2023-12-28T08:56:17;2.97;;;1.60;;
19727;SDS011;10015;52.530;13.390;2023-12-28T08:58:47;4.67;;;1.60;;
19727;SDS011;10015;52.530;13.390;2023-12-28T09:01:19;3.37;;;1.50;;
19727;SDS011;10015;52.530;13.390;2023-12-28T09:03:51;2.23;;;1.63;;
19727;SDS011;10015;52.530;13.390;2023-12-28T09:06:17;4.07;;;1.70;;
19727;SDS011;10015;52.530;13.390;2023-12-28T09:08:44;2.73;;;1.47;;
19727;SDS011;10015;52.530;13.390;2023-12-28T09:11:13;3.70;;;1.70;;
19727;SDS011;10015;52.530;13.390;2023-12-28T09:13:39;2.67;;;1.63;;
19727;SDS011;10015;52.530;13.390;2023-12-28T09:16:11;5.30;;;2.17;;
19727;SDS011;10015;52.530;13.390;2023-12-28T09:18:38;3.27;;;1.60;;
19727;SDS011;10015;52.530;13.390;2023-12-28T09:21:05;3.20;;;1.40;;
19727;SDS011;10015;52.530;13.390;2023-12-28T09:23:32;2.73;;;1.60;;
19727;SDS011;10015;52.530;13.390;2023-12-28T09:26:00;3.63;;;1.87;;
19727;SDS011;10015;52.530;13.390;2023-12-28T09:28:28;4.00;;;1.80;;
19727;SDS011;10015;52.530;13.390;2023-12-28T09:30:55;4.00;;;1.70;;
19727;SDS011;10015;52.530;13.390;2023-12-28T09:33:21;3.43;;;1.53;;
19727;SDS011;10015;52.530;13.390;2023-12-28T09:35:47;3.37;;;1.70;;
19727;SDS011;10015;52.530;13.390;2023-12-28T09:38:13;2.57;;;1.60;;
19727;SDS011;10015;52.530;13.390;2023-12-28T09:40:43;2.57;;;1.57;;
19727;SDS011;10015;52.530;13.390;2023-12-28T09:43:18;5.43;;;2.43;;
19727;SDS011;10015;52.530;13.390;2023-12-28T09:45:47;3.87;;;2.00;;
19727;SDS011;10015;52.530;13.390;2023-12-28T09:48:15;3.37;;;2.10;;
19727;SDS011;10015;52.530;13.390;2023-12-28T09:50:43;5.60;;;2.10;;
19727;SDS011;10015;52.530;13.390;2023-12-28T09:53:10;3.90;;;2.60;;
19727;SDS011;10015;52.530;13.390;2023-12-28T09:55:36;7.63;;;2.23;;
19727;SDS011;10015;52.530;13.390;2023-12-28T09:58:02;5.60;;;2.73;;
19727;SDS011;10015;52.530;13.390;2023-12-28T10:00:31;7.07;;;3.47;;
19727;SDS011;10015;52.530;13.390;2023-12-28T10:02:57;5.33;;;1.97;;
19727;SDS011;10015;52.530;13.390;2023-12-28T10:05:23;3.37;;;2.07;;
19727;SDS011;10015;52.530;13.390;2023-12-28T10:07:49;3.80;;;1.90;;
19727;SDS011;10015;52.530;13.390;2023-12-28T10:10:15;3.23;;;2.10;;
19727;SDS011;10015;52.530;13.390;2023-12-28T10:12:42;3.83;;;2.00;;
19727;SDS011;10015;52.530;13.390;2023-12-28T10:15:09;3.77;;;2.07;;
19727;SDS011;10015;52.530;13.390;2023-12-28T10:17:35;3.43;;;1.90;;
19727;SDS011;10015;52.530;13.390;2023-12-28T10:20:01;4.53;;;1.83;;
19727;SDS011;10015;52.530;13.390;2023-12-28T10:22:31;3.80;;;1.73;;
19727;SDS011;10015;52.530;13.390;2023-12-28T10:24:58;3.37;;;1.80;;
19727;SDS011;10015;52.530;13.390;2023-12-28T10:27:28;2.90;;;1.70;;
19727;SDS011;10015;52.530;13.390;2023-12-28T10:29:54;5.83;;;1.90;;
19727;SDS011;10015;52.530;13.390;2023-12-28T10:32:21;4.77;;;1.80;;
19727;SDS011;10015;52.530;13.390;2023-12-28T10:34:49;6.07;;;2.67;;
19727;SDS011;10015;52.530;13.390;2023-12-28T10:37:22;11.63;;;3.83;;
19727;SDS011;10015;52.530;13.390;2023-12-28T10:39:52;4.40;;;2.40;;
19727;SDS011;10015;52.530;13.390;2023-12-28T10:42:29;4.17;;;2.00;;
19727;SDS011;10015;52.530;13.390;2023-12-28T10:45:07;3.67;;;1.73;;
19727;SDS011;10015;52.530;13.390;2023-12-28T10:47:42;2.70;;;1.73;;
19727;SDS011;10015;52.530;13.390;2023-12-28T10:50:11;5.63;;;1.97;;
19727;SDS011;10015;52.530;13.390;2023-12-28T10:52:38;3.00;;;1.90;;
19727;SDS011;10015;52.530;13.390;2023-12-28T11:00:56;3.43;;;1.73;;
19727;SDS011;10015;52.530;13.390;2023-12-28T11:03:28;3.53;;;1.67;;
19727;SDS011;10015;52.530;13.390;2023-12-28T11:05:59;7.83;;;3.60;;
19727;SDS011;10015;52.530;13.390;2023-12-28T11:08:26;4.80;;;2.40;;
19727;SDS011;10015;52.530;13.390;2023-12-28T11:10:54;3.77;;;2.20;;
19727;SDS011;10015;52.530;13.390;2023-12-28T11:13:21;3.77;;;2.23;;
19727;SDS011;10015;52.530;13.390;2023-12-28T11:15:48;3.63;;;2.10;;
19727;SDS011;10015;52.530;13.390;2023-12-28T11:18:16;3.67;;;1.80;;
19727;SDS011;10015;52.530;13.390;2023-12-28T11:20:42;3.63;;;1.80;;
19727;SDS011;10015;52.530;13.390;2023-12-28T11:23:10;4.13;;;1.87;;
19727;SDS011;10015;52.530;13.390;2023-12-28T11:25:37;4.77;;;2.20;;
19727;SDS011;10015;52.530;13.390;2023-12-28T11:28:12;4.47;;;2.00;;
19727;SDS011;10015;52.530;13.390;2023-12-28T11:30:41;2.30;;;1.70;;
19727;SDS011;10015;52.530;13.390;2023-12-28T11:33:09;2.70;;;1.60;;
19727;SDS011;10015;52.530;13.390;2023-12-28T11:35:36;5.53;;;2.00;;
19727;SDS011;10015;52.530;13.390;2023-12-28T11:38:04;4.20;;;1.60;;
19727;SDS011;10015;52.530;13.390;2023-12-28T11:40:40;2.63;;;1.53;;
19727;SDS011;10015;52.530;13.390;2023-12-28T11:43:17;4.30;;;1.90;;
19727;SDS011;10015;52.530;13.390;2023-12-28T11:45:51;6.80;;;2.13;;
19727;SDS011;10015;52.530;13.390;2023-12-28T11:48:26;2.90;;;1.83;;
19727;SDS011;10015;52.530;13.390;2023-12-28T11:50:57;3.13;;;1.33;;
19727;SDS011;10015;52.530;13.390;2023-12-28T11:53:25;3.03;;;1.57;;
19727;SDS011;10015;52.530;13.390;2023-12-28T11:55:51;4.80;;;1.50;;
19727;SDS011;10015;52.530;13.390;2023-12-28T11:58:21;2.87;;;1.63;;
19727;SDS011;10015;52.530;13.390;2023-12-28T12:00:48;4.30;;;1.50;;
19727;SDS011;10015;52.530;13.390;2023-12-28T12:03:14;7.03;;;1.63;;
19727;SDS011;10015;52.530;13.390;2023-12-28T12:05:40;2.47;;;1.73;;
19727;SDS011;10015;52.530;13.390;2023-12-28T12:08:06;3.50;;;1.70;;
19727;SDS011;10015;52.530;13.390;2023-12-28T12:10:36;4.67;;;2.13;;
19727;SDS011;10015;52.530;13.390;2023-12-28T12:13:02;3.73;;;1.53;;
19727;SDS011;10015;52.530;13.390;2023-12-28T12:15:29;2.10;;;1.50;;
19727;SDS011;10015;52.530;13.390;2023-12-28T12:17:55;7.83;;;1.70;;
19727;SDS011;10015;52.530;13.390;2023-12-28T12:20:22;3.87;;;1.50;;
19727;SDS011;10015;52.530;13.390;2023-12-28T12:22:48;5.43;;;2.10;;
19727;SDS011;10015;52.530;13.390;2023-12-28T12:25:17;2.90;;;1.43;;
19727;SDS011;10015;52.530;13.390;2023-12-28T12:27:45;5.60;;;2.23;;
19727;SDS011;10015;52.530;13.390;2023-12-28T12:30:11;3.47;;;2.03;;
19727;SDS011;10015;52.530;13.390;2023-12-28T12:32:37;5.17;;;2.13;;
19727;SDS011;10015;52.530;13.390;2023-12-28T12:35:05;4.97;;;2.10;;
19727;SDS011;10015;52.530;13.390;2023-12-28T12:37:31;5.10;;;1.83;;
19727;SDS011;10015;52.530;13.390;2023-12-28T12:39:57;3.30;;;2.07;;
19727;SDS011;10015;52.530;13.390;2023-12-28T12:42:23;2.63;;;1.77;;
19727;SDS011;10015;52.530;13.390;2023-12-28T12:44:49;5.33;;;1.90;;
19727;SDS011;10015;52.530;13.390;2023-12-28T12:47:16;2.80;;;1.60;;
19727;SDS011;10015;52.530;13.390;2023-12-28T12:49:44;4.30;;;1.70;;
19727;SDS011;10015;52.530;13.390;2023-12-28T12:52:10;4.53;;;2.20;;
19727;SDS011;10015;52.530;13.390;2023-12-28T12:54:36;5.30;;;1.80;;
19727;SDS011;10015;52.530;13.390;2023-12-28T12:57:01;2.80;;;1.50;;
19727;SDS011;10015;52.530;13.390;2023-12-28T12:59:28;4.80;;;1.80;;
19727;SDS011;10015;52.530;13.390;2023-12-28T13:01:55;3.80;;;1.60;;
19727;SDS011;10015;52.530;13.390;2023-12-28T13:04:21;6.63;;;1.97;;
19727;SDS011;10015;52.530;13.390;2023-12-28T13:06:47;4.50;;;1.50;;
19727;SDS011;10015;52.530;13.390;2023-12-28T13:09:14;4.10;;;1.60;;
19727;SDS011;10015;52.530;13.390;2023-12-28T13:11:40;3.03;;;1.57;;
19727;SDS011;10015;52.530;13.390;2023-12-28T13:14:06;2.73;;;1.60;;
19727;SDS011;10015;52.530;13.390;2023-12-28T13:16:31;3.03;;;1.70;;
19727;SDS011;10015;52.530;13.390;2023-12-28T13:18:57;4.47;;;1.80;;
19727;SDS011;10015;52.530;13.390;2023-12-28T13:21:23;3.30;;;1.67;;
19727;SDS011;10015;52.530;13.390;2023-12-28T13:23:49;2.80;;;1.63;;
19727;SDS011;10015;52.530;13.390;2023-12-28T13:26:15;5.97;;;1.83;;
19727;SDS011;10015;52.530;13.390;2023-12-28T13:28:41;3.90;;;1.63;;
19727;SDS011;10015;52.530;13.390;2023-12-28T13:31:10;1.90;;;1.50;;
19727;SDS011;10015;52.530;13.390;2023-12-28T13:33:37;6.50;;;2.63;;
19727;SDS011;10015;52.530;13.390;2023-12-28T13:36:03;4.63;;;1.77;;
19727;SDS011;10015;52.530;13.390;2023-12-28T13:38:29;6.90;;;1.70;;
19727;SDS011;10015;52.530;13.390;2023-12-28T13:40:56;5.60;;;1.77;;
19727;SDS011;10015;52.530;13.390;2023-12-28T13:43:22;3.63;;;2.10;;
19727;SDS011;10015;52.530;13.390;2023-12-28T13:45:48;3.60;;;1.80;;
19727;SDS011;10015;52.530;13.390;2023-12-28T13:48:14;5.40;;;2.20;;
19727;SDS011;10015;52.530;13.390;2023-12-28T13:50:42;3.33;;;1.93;;
19727;SDS011;10015;52.530;13.390;2023-12-28T13:53:10;3.03;;;1.80;;
19727;SDS011;10015;52.530;13.390;2023-12-28T13:55:36;4.87;;;2.27;;
19727;SDS011;10015;52.530;13.390;2023-12-28T13:58:03;6.10;;;1.87;;
19727;SDS011;10015;52.530;13.390;2023-12-28T14:00:29;5.27;;;2.00;;
19727;SDS011;10015;52.530;13.390;2023-12-28T14:02:55;3.37;;;1.57;;
19727;SDS011;10015;52.530;13.390;2023-12-28T14:05:21;5.37;;;1.57;;
19727;SDS011;10015;52.530;13.390;2023-12-28T14:07:48;6.23;;;1.83;;
19727;SDS011;10015;52.530;13.390;2023-12-28T14:10:14;3.90;;;1.50;;
19727;SDS011;10015;52.530;13.390;2023-12-28T14:12:42;3.17;;;1.53;;
19727;SDS011;10015;52.530;13.390;2023-12-28T14:15:08;3.97;;;1.50;;
19727;SDS011;10015;52.530;13.390;2023-12-28T14:17:34;4.23;;;1.47;;
19727;SDS011;10015;52.530;13.390;2023-12-28T14:20:00;3.30;;;1.70;;
19727;SDS011;10015;52.530;13.390;2023-12-28T14:22:25;3.20;;;1.50;;
19727;SDS011;10015;52.530;13.390;2023-12-28T14:24:52;4.07;;;1.70;;
19727;SDS011;10015;52.530;13.390;2023-12-28T14:27:18;4.20;;;1.50;;
19727;SDS011;10015;52.530;13.390;2023-12-28T14:29:45;5.50;;;1.50;;
19727;SDS011;10015;52.530;13.390;2023-12-28T14:32:11;4.10;;;1.70;;
19727;SDS011;10015;52.530;13.390;2023-12-28T14:34:37;3.03;;;1.73;;
19727;SDS011;10015;52.530;13.390;2023-12-28T14:37:03;3.43;;;1.50;;
19727;SDS011;10015;52.530;13.390;2023-12-28T14:39:29;4.57;;;1.73;;
19727;SDS011;10015;52.530;13.390;2023-12-28T14:41:55;4.53;;;1.90;;